createdAt,value
2023-04-15T00:02:18.870Z,99.90
2023-04-15T00:04:48.177Z,99.90
2023-04-15T00:07:16.406Z,99.90
2023-04-15T00:09:44.844Z,99.90
2023-04-15T00:12:12.863Z,99.90
2023-04-15T00:14:40.305Z,99.90
2023-04-15T00:17:08.579Z,99.90
2023-04-15T00:19:36.070Z,99.90
2023-04-15T00:22:03.526Z,99.90
2023-04-15T00:24:32.094Z,99.90
2023-04-15T00:27:00.063Z,99.90
2023-04-15T00:29:27.702Z,99.90
2023-04-15T00:31:55.591Z,99.90
2023-04-15T00:34:23.671Z,99.90
2023-04-15T00:36:52.653Z,99.90
2023-04-15T00:39:20.485Z,99.90
2023-04-15T00:41:48.256Z,99.90
2023-04-15T00:44:15.997Z,99.90
2023-04-15T00:46:45.538Z,99.90
2023-04-15T00:49:13.435Z,99.90
2023-04-15T00:51:40.878Z,99.90
2023-04-15T00:54:08.473Z,99.90
2023-04-15T00:56:38.206Z,99.90
2023-04-15T00:59:07.236Z,99.90
2023-04-15T01:01:36.617Z,99.90
2023-04-15T01:04:05.540Z,99.90
2023-04-15T01:06:33.658Z,99.90
2023-04-15T01:09:01.913Z,99.90
2023-04-15T01:11:30.812Z,99.90
2023-04-15T01:13:59.398Z,99.90
2023-04-15T01:16:28.780Z,99.90
2023-04-15T01:18:56.999Z,99.90
2023-04-15T01:21:24.383Z,99.90
2023-04-15T01:23:53.723Z,99.90
2023-04-15T01:26:23.484Z,99.90
2023-04-15T01:28:51.288Z,99.90
2023-04-15T01:31:18.808Z,99.90
2023-04-15T01:33:47.204Z,99.90
2023-04-15T01:36:15.140Z,99.90
2023-04-15T01:38:42.727Z,99.90
2023-04-15T01:41:10.568Z,99.90
2023-04-15T01:43:37.990Z,99.90
2023-04-15T01:46:06.490Z,99.90
2023-04-15T01:48:34.052Z,99.90
2023-04-15T01:51:01.529Z,99.90
2023-04-15T01:53:29.749Z,99.90
2023-04-15T01:55:57.355Z,99.90
2023-04-15T01:58:24.853Z,99.90
2023-04-15T02:00:52.335Z,99.90
2023-04-15T02:03:20.036Z,99.90
2023-04-15T02:05:47.535Z,99.90
2023-04-15T02:08:15.013Z,99.90
2023-04-15T02:10:42.784Z,99.90
2023-04-15T02:13:10.974Z,99.90
2023-04-15T02:15:38.456Z,99.90
2023-04-15T02:18:05.898Z,99.90
2023-04-15T02:20:33.554Z,99.90
2023-04-15T02:23:01.598Z,99.90
2023-04-15T02:25:29.056Z,99.90
2023-04-15T02:27:58.573Z,99.90
2023-04-15T02:30:26.266Z,99.90
2023-04-15T02:32:53.895Z,99.90
2023-04-15T02:35:21.576Z,99.90
2023-04-15T02:37:49.060Z,99.90
2023-04-15T02:40:16.427Z,99.90
2023-04-15T02:42:44.482Z,99.90
2023-04-15T02:45:13.133Z,99.90
2023-04-15T02:47:41.806Z,99.90
2023-04-15T02:50:11.488Z,99.90
2023-04-15T02:52:42.917Z,99.90
2023-04-15T02:55:10.653Z,99.90
2023-04-15T02:57:39.180Z,99.90
2023-04-15T03:00:09.891Z,99.90
2023-04-15T03:02:38.970Z,99.90
2023-04-15T03:05:07.163Z,99.90
2023-04-15T03:07:34.880Z,99.90
2023-04-15T03:10:02.466Z,99.90
2023-04-15T03:12:30.535Z,99.90
2023-04-15T03:14:58.008Z,99.90
2023-04-15T03:17:25.583Z,99.90
2023-04-15T03:19:53.001Z,99.90
2023-04-15T03:22:20.605Z,99.90
2023-04-15T03:24:48.198Z,99.90
2023-04-15T03:27:15.597Z,99.90
2023-04-15T03:29:43.181Z,99.90
2023-04-15T03:32:10.758Z,99.90
2023-04-15T03:34:38.122Z,99.90
2023-04-15T03:37:06.342Z,99.90
2023-04-15T03:39:33.828Z,99.90
2023-04-15T03:42:01.992Z,99.90
2023-04-15T03:44:29.480Z,99.90
2023-04-15T03:46:57.010Z,99.90
2023-04-15T03:49:24.716Z,99.90
2023-04-15T03:51:52.525Z,99.90
2023-04-15T03:54:19.972Z,99.90
2023-04-15T03:56:47.354Z,99.90
2023-04-15T03:59:14.823Z,99.90
2023-04-15T04:01:42.313Z,99.90
2023-04-15T04:04:10.084Z,99.90
2023-04-15T04:06:37.706Z,99.90
2023-04-15T04:09:05.198Z,99.90
2023-04-15T04:11:33.212Z,99.90
2023-04-15T04:14:00.681Z,99.90
2023-04-15T04:16:28.289Z,99.90
2023-04-15T04:18:55.981Z,99.90
2023-04-15T04:21:23.559Z,99.90
2023-04-15T04:23:51.398Z,99.90
2023-04-15T04:26:19.867Z,99.90
2023-04-15T04:28:47.330Z,99.90
2023-04-15T04:31:14.897Z,99.90
2023-04-15T04:33:42.277Z,99.90
2023-04-15T04:36:09.802Z,99.90
2023-04-15T04:38:37.325Z,99.90
2023-04-15T04:41:04.856Z,99.90
2023-04-15T04:43:32.376Z,99.90
2023-04-15T04:45:59.826Z,99.90
2023-04-15T04:48:27.223Z,99.90
2023-04-15T04:50:55.062Z,99.90
2023-04-15T04:53:22.636Z,99.90
2023-04-15T04:55:50.040Z,99.90
2023-04-15T04:58:17.574Z,99.90
2023-04-15T05:00:45.201Z,99.90
2023-04-15T05:03:12.794Z,99.90
2023-04-15T05:05:41.339Z,99.90
2023-04-15T05:08:08.715Z,99.90
2023-04-15T05:10:36.665Z,99.90
2023-04-15T05:13:04.122Z,99.90
2023-04-15T05:15:32.508Z,99.90
2023-04-15T05:17:59.956Z,99.90
2023-04-15T05:20:27.424Z,99.90
2023-04-15T05:22:54.797Z,99.90
2023-04-15T05:25:22.464Z,99.90
2023-04-15T05:27:50.159Z,99.90
2023-04-15T05:30:17.657Z,99.90
2023-04-15T05:32:45.220Z,99.90
2023-04-15T05:35:12.998Z,99.90
2023-04-15T05:37:40.805Z,99.90
2023-04-15T05:40:10.662Z,99.90
2023-04-15T05:42:38.418Z,99.90
2023-04-15T05:45:09.287Z,99.90
2023-04-15T05:47:37.770Z,99.90
2023-04-15T05:50:08.745Z,99.90
2023-04-15T05:52:36.250Z,99.90
2023-04-15T05:55:03.982Z,99.90
2023-04-15T05:57:31.724Z,99.90
2023-04-15T05:59:59.214Z,99.90
2023-04-15T06:02:26.860Z,99.90
2023-04-15T06:04:54.490Z,99.90
2023-04-15T06:07:21.928Z,99.90
2023-04-15T06:09:49.614Z,99.90
2023-04-15T06:12:17.330Z,99.90
2023-04-15T06:14:44.747Z,99.90
2023-04-15T06:17:15.009Z,99.90
2023-04-15T06:19:42.837Z,99.90
2023-04-15T06:22:10.313Z,99.90
2023-04-15T06:24:37.904Z,99.90
2023-04-15T06:27:05.378Z,99.90
2023-04-15T06:29:32.800Z,99.90
2023-04-15T06:32:00.675Z,99.90
2023-04-15T06:34:28.192Z,99.90
2023-04-15T06:36:56.154Z,99.90
2023-04-15T06:39:23.574Z,99.90
2023-04-15T06:41:51.452Z,99.90
2023-04-15T06:44:19.109Z,99.90
2023-04-15T06:46:46.515Z,99.90
2023-04-15T06:49:14.303Z,99.90
2023-04-15T06:51:45.103Z,99.90
2023-04-15T06:54:12.685Z,99.90
2023-04-15T06:56:40.170Z,99.90
2023-04-15T06:59:08.926Z,99.90
2023-04-15T07:01:36.630Z,99.90
2023-04-15T07:04:04.284Z,99.90
2023-04-15T07:06:32.873Z,99.90
2023-04-15T07:09:00.578Z,99.90
2023-04-15T07:11:28.420Z,99.80
2023-04-15T07:13:56.006Z,99.90
2023-04-15T07:16:23.497Z,99.90
2023-04-15T07:18:51.500Z,99.90
2023-04-15T07:21:18.964Z,98.30
2023-04-15T07:23:46.730Z,94.40
2023-04-15T07:26:14.392Z,91.60
2023-04-15T07:28:41.839Z,89.20
2023-04-15T07:31:09.490Z,84.30
2023-04-15T07:33:37.524Z,85.40
2023-04-15T07:36:05.330Z,85.80
2023-04-15T07:38:32.762Z,86.00
2023-04-15T07:41:00.344Z,83.50
2023-04-15T07:43:28.453Z,82.90
2023-04-15T07:45:56.067Z,85.00
2023-04-15T07:48:23.558Z,85.40
2023-04-15T07:50:51.235Z,82.40
2023-04-15T07:53:18.802Z,80.60
2023-04-15T07:55:46.854Z,77.80
2023-04-15T07:58:14.341Z,77.90
2023-04-15T08:00:41.855Z,77.60
2023-04-15T08:03:09.416Z,74.80
2023-04-15T08:05:37.262Z,73.40
2023-04-15T08:08:05.152Z,68.90
2023-04-15T08:10:32.697Z,69.00
2023-04-15T08:13:00.275Z,70.30
2023-04-15T08:15:28.563Z,67.90
2023-04-15T08:17:56.146Z,65.70
2023-04-15T08:20:24.124Z,65.40
2023-04-15T08:22:52.730Z,67.80
2023-04-15T08:25:20.371Z,65.70
2023-04-15T08:27:48.402Z,65.90
2023-04-15T08:30:15.917Z,66.90
2023-04-15T08:32:47.011Z,67.90
2023-04-15T08:35:14.776Z,64.80
2023-04-15T08:37:42.918Z,68.20
2023-04-15T08:40:11.644Z,66.90
2023-04-15T08:42:45.174Z,66.40
2023-04-15T08:45:12.592Z,67.40
2023-04-15T08:47:41.251Z,66.80
2023-04-15T08:50:10.849Z,65.40
2023-04-15T08:52:38.587Z,64.50
2023-04-15T08:55:07.929Z,68.20
2023-04-15T08:57:37.944Z,64.70
2023-04-15T09:00:06.761Z,66.10
2023-04-15T09:02:34.553Z,64.20
2023-04-15T09:05:05.123Z,65.10
2023-04-15T09:07:35.547Z,65.60
2023-04-15T09:10:04.939Z,67.40
2023-04-15T09:12:37.769Z,69.30
2023-04-15T09:15:05.765Z,68.80
2023-04-15T09:17:34.701Z,69.50
2023-04-15T09:20:09.943Z,69.10
2023-04-15T09:22:38.213Z,69.30
2023-04-15T09:25:27.408Z,66.60
2023-04-15T09:27:57.586Z,63.40
2023-04-15T09:30:25.514Z,65.50
2023-04-15T09:32:54.780Z,67.70
2023-04-15T09:35:23.690Z,68.20
2023-04-15T09:37:51.594Z,72.10
2023-04-15T09:40:40.583Z,70.70
2023-04-15T09:43:09.985Z,72.80
2023-04-15T09:45:37.601Z,71.90
2023-04-15T09:48:27.199Z,70.70
2023-04-15T09:50:58.972Z,71.20
2023-04-15T09:53:26.624Z,70.20
2023-04-15T09:55:56.395Z,66.90
2023-04-15T09:58:33.683Z,66.40
2023-04-15T10:01:03.677Z,66.10
2023-04-15T10:03:34.580Z,66.50
2023-04-15T10:06:02.389Z,65.20
2023-04-15T10:08:33.793Z,65.70
2023-04-15T10:11:05.144Z,64.10
2023-04-15T10:13:35.154Z,65.20
2023-04-15T10:16:14.379Z,61.50
2023-04-15T10:18:46.647Z,62.40
2023-04-15T10:21:18.918Z,62.70
2023-04-15T10:23:47.405Z,61.00
2023-04-15T10:26:17.451Z,61.20
2023-04-15T10:28:47.277Z,59.10
2023-04-15T10:31:15.258Z,61.60
2023-04-15T10:33:44.481Z,58.20
2023-04-15T10:36:12.794Z,58.80
2023-04-15T10:38:45.831Z,58.50
2023-04-15T10:41:15.464Z,60.30
2023-04-15T10:43:53.177Z,65.00
2023-04-15T10:46:25.868Z,66.40
2023-04-15T10:48:54.913Z,64.30
2023-04-15T10:51:30.869Z,62.30
2023-04-15T10:54:01.046Z,59.90
2023-04-15T10:56:30.379Z,55.00
2023-04-15T10:59:00.838Z,56.10
2023-04-15T11:01:55.354Z,53.80
2023-04-15T11:04:57.821Z,54.10
2023-04-15T11:07:47.548Z,55.50
2023-04-15T11:10:18.026Z,56.20
2023-04-15T11:12:46.919Z,56.80
2023-04-15T11:15:32.125Z,58.30
2023-04-15T11:18:00.658Z,58.60
2023-04-15T11:20:29.025Z,58.80
2023-04-15T11:23:08.134Z,57.00
2023-04-15T11:25:43.861Z,56.70
2023-04-15T11:28:12.849Z,59.10
2023-04-15T11:30:42.544Z,60.60
2023-04-15T11:33:12.445Z,61.30
2023-04-15T11:35:42.175Z,60.70
2023-04-15T11:38:15.783Z,60.10
2023-04-15T11:40:46.838Z,55.90
2023-04-15T11:43:21.247Z,57.10
2023-04-15T11:45:56.872Z,57.70
2023-04-15T11:48:35.843Z,57.10
2023-04-15T11:51:07.758Z,56.40
2023-04-15T11:53:41.389Z,52.30
2023-04-15T11:56:10.848Z,54.00
2023-04-15T11:58:39.441Z,55.60
2023-04-15T12:01:07.745Z,58.50
2023-04-15T12:03:43.497Z,60.90
2023-04-15T12:06:20.638Z,61.30
2023-04-15T12:09:06.798Z,64.10
2023-04-15T12:12:00.617Z,64.70
2023-04-15T12:14:30.895Z,66.60
2023-04-15T12:17:07.430Z,64.80
2023-04-15T12:19:40.697Z,65.30
2023-04-15T12:22:16.450Z,59.60
2023-04-15T12:24:48.005Z,60.50
2023-04-15T12:27:17.058Z,62.10
2023-04-15T12:29:45.046Z,60.60
2023-04-15T12:32:17.387Z,60.60
2023-04-15T12:34:53.249Z,58.60
2023-04-15T12:37:21.070Z,61.40
2023-04-15T12:39:49.950Z,62.00
2023-04-15T12:42:18.555Z,65.20
2023-04-15T12:44:47.162Z,60.80
2023-04-15T12:47:15.212Z,62.20
2023-04-15T12:49:42.678Z,64.00
2023-04-15T12:52:10.160Z,67.20
2023-04-15T12:54:37.765Z,69.60
2023-04-15T12:57:07.228Z,66.60
2023-04-15T12:59:36.357Z,62.70
2023-04-15T13:02:04.734Z,63.30
2023-04-15T13:04:32.396Z,65.00
2023-04-15T13:07:01.776Z,64.50
2023-04-15T13:09:29.236Z,66.80
2023-04-15T13:11:57.742Z,67.10
2023-04-15T13:14:25.227Z,65.60
2023-04-15T13:16:53.882Z,65.80
2023-04-15T13:19:21.367Z,66.10
2023-04-15T13:21:48.814Z,69.30
2023-04-15T13:24:16.751Z,70.00
2023-04-15T13:26:44.170Z,70.00
2023-04-15T13:29:12.381Z,68.60
2023-04-15T13:31:40.173Z,70.80
2023-04-15T13:34:07.976Z,69.80
2023-04-15T13:36:35.592Z,70.00
2023-04-15T13:39:03.665Z,72.40
2023-04-15T13:41:31.371Z,73.40
2023-04-15T13:43:59.042Z,73.30
2023-04-15T13:46:26.523Z,76.60
2023-04-15T13:48:53.984Z,73.60
2023-04-15T13:51:22.043Z,75.20
2023-04-15T13:53:49.567Z,73.30
2023-04-15T13:56:17.264Z,72.60
2023-04-15T13:58:45.031Z,74.60
2023-04-15T14:01:12.479Z,73.80
2023-04-15T14:03:40.109Z,70.50
2023-04-15T14:06:07.917Z,73.10
2023-04-15T14:08:35.632Z,72.20
2023-04-15T14:11:03.138Z,71.00
2023-04-15T14:13:31.867Z,74.70
2023-04-15T14:15:59.440Z,73.70
2023-04-15T14:18:27.262Z,75.90
2023-04-15T14:20:55.142Z,78.30
2023-04-15T14:23:23.563Z,80.10
2023-04-15T14:25:52.157Z,76.70
2023-04-15T14:28:19.886Z,75.70
2023-04-15T14:30:47.368Z,77.40
2023-04-15T14:33:14.860Z,81.20
2023-04-15T14:35:42.546Z,77.60
2023-04-15T14:38:11.485Z,74.50
2023-04-15T14:40:39.290Z,76.70
2023-04-15T14:43:07.057Z,77.60
2023-04-15T14:45:35.430Z,75.60
2023-04-15T14:48:02.988Z,78.00
2023-04-15T14:50:30.723Z,78.80
2023-04-15T14:52:58.973Z,81.20
2023-04-15T14:55:26.733Z,81.00
2023-04-15T14:57:54.415Z,78.00
2023-04-15T15:00:21.877Z,79.80
2023-04-15T15:02:49.504Z,80.50
2023-04-15T15:05:17.257Z,76.60
2023-04-15T15:07:44.727Z,75.10
2023-04-15T15:10:12.175Z,76.90
2023-04-15T15:12:39.793Z,79.00
2023-04-15T15:15:19.498Z,80.80
2023-04-15T15:17:55.277Z,80.50
2023-04-15T15:20:24.123Z,78.00
2023-04-15T15:22:51.705Z,76.90
2023-04-15T15:25:19.298Z,80.50
2023-04-15T15:27:47.014Z,81.40
2023-04-15T15:30:14.890Z,81.10
2023-04-15T15:32:43.137Z,81.40
2023-04-15T15:35:11.306Z,81.60
2023-04-15T15:37:38.903Z,82.70
2023-04-15T15:40:07.510Z,82.10
2023-04-15T15:42:35.404Z,82.40
2023-04-15T15:45:04.868Z,83.10
2023-04-15T15:47:32.602Z,84.70
2023-04-15T15:50:02.669Z,83.10
2023-04-15T15:52:31.187Z,84.00
2023-04-15T15:54:58.815Z,82.30
2023-04-15T15:57:26.318Z,81.30
2023-04-15T16:00:04.852Z,82.80
2023-04-15T16:02:59.916Z,83.30
2023-04-15T16:05:25.966Z,84.10
2023-04-15T16:07:53.745Z,84.60
2023-04-15T16:10:21.247Z,85.80
2023-04-15T16:12:48.704Z,83.70
2023-04-15T16:15:16.408Z,82.70
2023-04-15T16:17:43.883Z,84.90
2023-04-15T16:20:11.612Z,84.00
2023-04-15T16:22:39.835Z,85.50
2023-04-15T16:25:07.689Z,84.30
2023-04-15T16:27:46.492Z,84.80
2023-04-15T16:30:22.296Z,85.50
2023-04-15T16:32:49.787Z,83.30
2023-04-15T16:35:17.534Z,85.20
2023-04-15T16:37:45.204Z,86.20
2023-04-15T16:40:12.956Z,86.20
2023-04-15T16:42:43.824Z,86.50
2023-04-15T16:45:11.667Z,86.70
2023-04-15T16:47:39.170Z,86.60
2023-04-15T16:50:07.225Z,88.90
2023-04-15T16:52:34.907Z,88.40
2023-04-15T16:55:02.544Z,89.00
2023-04-15T16:58:00.709Z,90.50
2023-04-15T17:00:17.569Z,90.30
2023-04-15T17:02:45.171Z,89.00
2023-04-15T17:05:12.765Z,89.30
2023-04-15T17:07:40.226Z,90.50
2023-04-15T17:10:08.018Z,90.70
2023-04-15T17:12:35.522Z,90.80
2023-04-15T17:15:03.385Z,90.70
2023-04-15T17:17:30.847Z,90.10
2023-04-15T17:19:58.273Z,90.70
2023-04-15T17:22:25.885Z,91.60
2023-04-15T17:24:53.267Z,91.80
2023-04-15T17:27:21.390Z,91.60
2023-04-15T17:29:49.120Z,92.00
2023-04-15T17:32:16.598Z,91.60
2023-04-15T17:34:49.898Z,92.40
2023-04-15T17:37:18.591Z,92.80
2023-04-15T17:39:46.328Z,92.40
2023-04-15T17:42:14.234Z,91.90
2023-04-15T17:44:41.788Z,93.00
2023-04-15T17:47:09.255Z,93.80
2023-04-15T17:49:37.920Z,94.20
2023-04-15T17:52:05.560Z,94.40
2023-04-15T17:54:33.057Z,95.10
2023-04-15T17:57:01.490Z,95.90
2023-04-15T17:59:29.311Z,96.50
2023-04-15T18:01:58.518Z,97.20
2023-04-15T18:04:26.850Z,98.60
2023-04-15T18:06:54.740Z,99.30
2023-04-15T18:09:22.341Z,99.90
2023-04-15T18:11:49.808Z,99.90
2023-04-15T18:14:27.090Z,99.90
2023-04-15T18:17:01.103Z,99.90
2023-04-15T18:19:28.621Z,99.90
2023-04-15T18:21:56.140Z,99.90
2023-04-15T18:24:23.585Z,99.90
2023-04-15T18:26:51.189Z,99.90
2023-04-15T18:29:18.694Z,99.90
2023-04-15T18:31:46.232Z,99.90
2023-04-15T18:34:13.818Z,99.90
2023-04-15T18:36:41.369Z,99.90
2023-04-15T18:39:08.894Z,99.90
2023-04-15T18:41:36.593Z,99.90
2023-04-15T18:44:03.990Z,99.90
2023-04-15T18:46:31.413Z,99.90
2023-04-15T18:48:59.185Z,99.90
2023-04-15T18:51:27.428Z,99.90
2023-04-15T18:53:54.861Z,99.90
2023-04-15T18:56:22.332Z,99.90
2023-04-15T18:59:21.096Z,99.90
2023-04-15T19:01:37.242Z,99.90
2023-04-15T19:04:04.799Z,99.90
2023-04-15T19:06:32.273Z,99.90
2023-04-15T19:08:59.815Z,99.90
2023-04-15T19:11:27.221Z,99.90
2023-04-15T19:13:54.659Z,99.90
2023-04-15T19:16:22.134Z,99.90
2023-04-15T19:18:49.570Z,99.90
2023-04-15T19:21:16.967Z,99.90
2023-04-15T19:23:44.472Z,99.90
2023-04-15T19:26:12.250Z,99.90
2023-04-15T19:28:39.786Z,99.90
2023-04-15T19:31:07.564Z,99.90
2023-04-15T19:33:35.052Z,99.90
2023-04-15T19:36:04.989Z,99.90
2023-04-15T19:38:33.521Z,99.90
2023-04-15T19:41:00.978Z,99.90
2023-04-15T19:43:28.412Z,99.90
2023-04-15T19:45:56.267Z,99.90
2023-04-15T19:48:25.314Z,99.90
2023-04-15T19:50:52.916Z,99.90
2023-04-15T19:53:20.381Z,99.90
2023-04-15T19:55:48.541Z,99.90
2023-04-15T19:58:16.240Z,99.90
2023-04-15T20:00:43.814Z,99.90
2023-04-15T20:03:11.413Z,99.90
2023-04-15T20:05:38.976Z,99.90
2023-04-15T20:08:06.498Z,99.90
2023-04-15T20:10:34.183Z,99.90
2023-04-15T20:13:01.568Z,99.90
2023-04-15T20:15:29.215Z,99.90
2023-04-15T20:17:56.720Z,99.90
2023-04-15T20:20:24.264Z,99.90
2023-04-15T20:22:53.369Z,99.90
2023-04-15T20:25:21.009Z,99.90
2023-04-15T20:27:48.408Z,99.90
2023-04-15T20:30:15.910Z,99.90
2023-04-15T20:32:43.471Z,99.90
2023-04-15T20:35:11.309Z,99.90
2023-04-15T20:37:40.493Z,99.90
2023-04-15T20:40:08.583Z,99.90
2023-04-15T20:42:35.991Z,99.90
2023-04-15T20:45:03.715Z,99.90
2023-04-15T20:47:31.267Z,99.90
2023-04-15T20:49:58.797Z,99.90
2023-04-15T20:52:26.547Z,99.90
2023-04-15T20:54:53.922Z,99.90
2023-04-15T20:57:21.285Z,99.90
2023-04-15T20:59:48.811Z,99.90
2023-04-15T21:02:16.603Z,99.90
2023-04-15T21:04:44.161Z,99.90
2023-04-15T21:07:12.352Z,99.90
2023-04-15T21:09:41.537Z,99.90
2023-04-15T21:12:09.817Z,99.90
2023-04-15T21:14:37.835Z,99.90
2023-04-15T21:17:10.019Z,99.90
2023-04-15T21:19:38.877Z,99.90
2023-04-15T21:22:06.375Z,99.90
2023-04-15T21:24:33.866Z,99.90
2023-04-15T21:27:02.105Z,99.90
2023-04-15T21:29:29.742Z,99.90
2023-04-15T21:31:57.184Z,99.90
2023-04-15T21:34:24.593Z,99.90
2023-04-15T21:36:52.240Z,99.90
2023-04-15T21:39:19.707Z,99.90
2023-04-15T21:41:47.139Z,99.90
2023-04-15T21:44:15.108Z,99.90
2023-04-15T21:46:46.016Z,99.90
2023-04-15T21:49:14.240Z,99.90
2023-04-15T21:51:42.089Z,99.90
2023-04-15T21:54:10.470Z,99.90
2023-04-15T21:56:38.422Z,99.90
2023-04-15T21:59:06.972Z,99.90
2023-04-15T22:01:35.058Z,99.90
2023-04-15T22:04:03.009Z,99.90
2023-04-15T22:06:31.862Z,99.90
2023-04-15T22:08:59.736Z,99.90
2023-04-15T22:11:27.910Z,99.90
2023-04-15T22:13:57.469Z,99.90
2023-04-15T22:16:26.665Z,99.90
2023-04-15T22:18:55.372Z,99.90
2023-04-15T22:21:23.065Z,99.90
2023-04-15T22:23:52.638Z,99.90
2023-04-15T22:26:20.493Z,99.90
2023-04-15T22:28:48.414Z,99.90
2023-04-15T22:31:16.281Z,99.90
2023-04-15T22:33:44.038Z,99.90
2023-04-15T22:36:15.434Z,99.90
2023-04-15T22:38:43.104Z,99.90
2023-04-15T22:41:10.993Z,99.90
2023-04-15T22:43:40.247Z,99.90
2023-04-15T22:46:07.786Z,99.90
2023-04-15T22:48:35.254Z,99.90
2023-04-15T22:51:03.913Z,99.90
2023-04-15T22:53:31.502Z,99.90
2023-04-15T22:55:58.932Z,99.90
2023-04-15T22:58:26.475Z,99.90
2023-04-15T23:00:54.254Z,99.90
2023-04-15T23:03:21.875Z,99.90
2023-04-15T23:05:49.676Z,99.90
2023-04-15T23:08:17.166Z,99.90
2023-04-15T23:10:44.769Z,99.90
2023-04-15T23:13:12.306Z,99.90
2023-04-15T23:15:39.731Z,99.90
2023-04-15T23:18:07.212Z,99.90
2023-04-15T23:20:34.829Z,99.90
2023-04-15T23:23:02.263Z,99.90
2023-04-15T23:25:29.863Z,99.90
2023-04-15T23:27:57.307Z,99.90
2023-04-15T23:30:24.841Z,99.90
2023-04-15T23:32:52.271Z,99.90
2023-04-15T23:35:19.802Z,99.90
2023-04-15T23:37:47.214Z,99.90
2023-04-15T23:40:15.711Z,99.90
2023-04-15T23:42:43.656Z,99.90
2023-04-15T23:45:12.057Z,99.90
2023-04-15T23:47:40.196Z,99.90
2023-04-15T23:50:09.119Z,99.90
2023-04-15T23:52:37.161Z,99.90
2023-04-15T23:55:04.910Z,99.90
2023-04-15T23:57:32.421Z,99.90
